createdAt,value
2023-03-17T00:00:26.452Z,7.342834473
2023-03-17T00:01:26.946Z,7.342834473
2023-03-17T00:02:27.432Z,7.362976074
2023-03-17T00:03:27.782Z,7.342834473
2023-03-17T00:04:28.190Z,7.322692871
2023-03-17T00:05:28.564Z,7.322692871
2023-03-17T00:06:28.955Z,7.332763672
2023-03-17T00:07:30.207Z,7.342834473
2023-03-17T00:08:30.627Z,7.322692871
2023-03-17T00:09:31.095Z,7.322692871
2023-03-17T00:10:31.935Z,7.30255127
2023-03-17T00:11:31.908Z,7.292480469
2023-03-17T00:12:32.617Z,7.272338867
2023-03-17T00:13:33.215Z,7.242126465
2023-03-17T00:14:33.635Z,7.211914063
2023-03-17T00:15:34.187Z,7.18170166
2023-03-17T00:16:34.486Z,7.242126465
2023-03-17T00:17:35.701Z,7.191772461
2023-03-17T00:18:36.602Z,7.121276855
2023-03-17T00:20:08.182Z,7.080993652
2023-03-17T00:21:08.613Z,7.000427246
2023-03-17T00:22:09.883Z,6.960144043
2023-03-17T00:23:10.330Z,6.929931641
2023-03-17T00:24:11.877Z,6.940002441
2023-03-17T00:25:11.230Z,6.929931641
2023-03-17T00:26:12.421Z,6.960144043
2023-03-17T00:27:12.830Z,6.990356445
2023-03-17T00:28:13.883Z,6.990356445
2023-03-17T00:29:14.368Z,7.000427246
2023-03-17T00:30:14.854Z,7.040710449
2023-03-17T00:31:15.482Z,7.000427246
2023-03-17T00:32:15.860Z,7.000427246
2023-03-17T00:33:16.318Z,6.970214844
2023-03-17T00:34:16.886Z,6.990356445
2023-03-17T00:35:17.318Z,7.000427246
2023-03-17T00:36:17.854Z,7.010498047
2023-03-17T00:37:18.314Z,7.000427246
2023-03-17T00:38:19.477Z,7.010498047
2023-03-17T00:39:19.879Z,7.070922852
2023-03-17T00:40:20.179Z,7.05078125
2023-03-17T00:41:20.669Z,7.070922852
2023-03-17T00:42:21.165Z,7.05078125
2023-03-17T00:43:21.642Z,7.070922852
2023-03-17T00:44:22.065Z,7.080993652
2023-03-17T00:45:22.464Z,7.070922852
2023-03-17T00:46:22.973Z,7.091064453
2023-03-17T00:47:23.389Z,7.091064453
2023-03-17T00:48:24.505Z,7.091064453
2023-03-17T00:49:24.893Z,7.091064453
2023-03-17T00:50:25.264Z,7.05078125
2023-03-17T00:51:25.814Z,7.05078125
2023-03-17T00:52:26.312Z,7.000427246
2023-03-17T00:53:26.824Z,7.000427246
2023-03-17T00:54:27.930Z,6.990356445
2023-03-17T00:55:28.392Z,6.970214844
2023-03-17T00:56:28.786Z,7.000427246
2023-03-17T00:57:29.184Z,7.000427246
2023-03-17T00:58:30.458Z,7.040710449
2023-03-17T00:59:30.915Z,7.05078125
2023-03-17T01:00:31.821Z,7.05078125
2023-03-17T01:01:31.778Z,7.05078125
2023-03-17T01:02:32.425Z,7.070922852
2023-03-17T01:03:32.818Z,7.080993652
2023-03-17T01:04:33.303Z,7.080993652
2023-03-17T01:05:33.745Z,7.070922852
2023-03-17T01:06:34.182Z,7.070922852
2023-03-17T01:07:34.610Z,7.010498047
2023-03-17T01:09:06.295Z,7.000427246
2023-03-17T01:10:06.646Z,7.040710449
2023-03-17T01:11:07.135Z,7.010498047
2023-03-17T01:12:07.553Z,6.990356445
2023-03-17T01:13:08.041Z,6.960144043
2023-03-17T01:14:08.492Z,6.970214844
2023-03-17T01:15:08.962Z,7.000427246
2023-03-17T01:16:09.480Z,6.960144043
2023-03-17T01:17:09.874Z,6.940002441
2023-03-17T01:18:11.148Z,6.909790039
2023-03-17T01:19:11.580Z,6.909790039
2023-03-17T01:20:11.993Z,6.960144043
2023-03-17T01:21:12.519Z,6.940002441
2023-03-17T01:22:13.034Z,6.899719238
2023-03-17T01:23:13.539Z,6.889648438
2023-03-17T01:24:14.692Z,6.909790039
2023-03-17T01:25:15.065Z,6.899719238
2023-03-17T01:26:15.524Z,6.889648438
2023-03-17T01:27:15.977Z,6.859436035
2023-03-17T01:28:17.164Z,6.829223633
2023-03-17T01:29:17.629Z,6.829223633
2023-03-17T01:30:18.039Z,6.829223633
2023-03-17T01:31:18.583Z,6.829223633
2023-03-17T01:32:18.974Z,6.899719238
2023-03-17T01:33:20.393Z,6.929931641
2023-03-17T01:34:20.897Z,6.909790039
2023-03-17T01:35:21.323Z,6.889648438
2023-03-17T01:36:21.738Z,6.889648438
2023-03-17T01:37:22.156Z,6.899719238
2023-03-17T01:38:23.205Z,6.889648438
2023-03-17T01:39:23.699Z,6.859436035
2023-03-17T01:40:24.137Z,6.819152832
2023-03-17T01:41:24.613Z,6.829223633
2023-03-17T01:42:24.998Z,6.859436035
2023-03-17T01:43:25.404Z,6.78894043
2023-03-17T01:44:25.929Z,6.78894043
2023-03-17T01:45:26.518Z,6.819152832
2023-03-17T01:46:26.828Z,6.859436035
2023-03-17T01:47:27.280Z,6.829223633
2023-03-17T01:48:28.662Z,6.819152832
2023-03-17T01:49:29.229Z,6.819152832
2023-03-17T01:50:29.944Z,6.78894043
2023-03-17T01:51:30.099Z,6.809082031
2023-03-17T01:52:30.597Z,6.78894043
2023-03-17T01:53:31.069Z,6.778869629
2023-03-17T01:54:31.506Z,6.748657227
2023-03-17T01:55:32.028Z,6.778869629
2023-03-17T01:56:32.517Z,6.758728027
2023-03-17T01:57:32.993Z,6.809082031
2023-03-17T01:58:34.162Z,6.78894043
2023-03-17T01:59:34.688Z,6.778869629
2023-03-17T02:01:05.660Z,6.778869629
2023-03-17T02:02:06.064Z,6.78894043
2023-03-17T02:03:06.534Z,6.78894043
2023-03-17T02:04:06.995Z,6.778869629
2023-03-17T02:05:07.420Z,6.758728027
2023-03-17T02:06:07.833Z,6.758728027
2023-03-17T02:07:08.354Z,6.758728027
2023-03-17T02:08:08.806Z,6.778869629
2023-03-17T02:09:09.949Z,6.78894043
2023-03-17T02:10:10.363Z,6.819152832
2023-03-17T02:11:10.793Z,6.819152832
2023-03-17T02:12:11.280Z,6.819152832
2023-03-17T02:13:11.804Z,6.869506836
2023-03-17T02:14:12.249Z,6.859436035
2023-03-17T02:15:12.719Z,6.809082031
2023-03-17T02:16:13.149Z,6.809082031
2023-03-17T02:17:13.527Z,6.809082031
2023-03-17T02:18:14.051Z,6.78894043
2023-03-17T02:19:15.463Z,6.758728027
2023-03-17T02:20:15.923Z,6.728515625
2023-03-17T02:21:16.389Z,6.728515625
2023-03-17T02:22:16.984Z,6.748657227
2023-03-17T02:23:17.463Z,6.778869629
2023-03-17T02:24:18.700Z,6.758728027
2023-03-17T02:25:19.190Z,6.728515625
2023-03-17T02:26:19.633Z,6.758728027
2023-03-17T02:27:20.058Z,6.758728027
2023-03-17T02:28:20.547Z,6.758728027
2023-03-17T02:29:21.899Z,6.748657227
2023-03-17T02:30:22.527Z,6.728515625
2023-03-17T02:31:23.028Z,6.728515625
2023-03-17T02:32:24.166Z,6.778869629
2023-03-17T02:33:24.606Z,6.778869629
2023-03-17T02:34:25.062Z,6.809082031
2023-03-17T02:35:25.574Z,6.758728027
2023-03-17T02:36:26.046Z,6.718444824
2023-03-17T02:37:26.481Z,6.708374023
2023-03-17T02:38:26.974Z,6.708374023
2023-03-17T02:39:28.400Z,6.678161621
2023-03-17T02:40:29.118Z,6.607666016
2023-03-17T02:41:29.330Z,6.577453613
2023-03-17T02:42:29.751Z,6.577453613
2023-03-17T02:43:30.248Z,6.567382813
2023-03-17T02:44:30.665Z,6.456604004
2023-03-17T02:45:31.228Z,6.416320801
2023-03-17T02:46:31.569Z,6.376037598
2023-03-17T02:47:32.291Z,6.386108398
2023-03-17T02:48:32.914Z,6.345825195
2023-03-17T02:49:33.894Z,6.325683594
2023-03-17T02:51:04.940Z,6.416320801
2023-03-17T02:52:05.335Z,6.446533203
2023-03-17T02:53:05.856Z,6.506958008
2023-03-17T02:54:06.314Z,6.456604004
2023-03-17T02:55:07.426Z,6.386108398
2023-03-17T02:56:08.000Z,6.386108398
2023-03-17T02:57:08.416Z,6.386108398
2023-03-17T02:58:08.864Z,6.396179199
2023-03-17T02:59:10.225Z,6.396179199
2023-03-17T03:00:10.643Z,6.396179199
2023-03-17T03:01:11.146Z,6.426391602
2023-03-17T03:02:11.621Z,6.446533203
2023-03-17T03:03:11.965Z,6.456604004
2023-03-17T03:04:12.542Z,6.456604004
2023-03-17T03:05:13.011Z,6.476745605
2023-03-17T03:06:13.625Z,6.456604004
2023-03-17T03:07:13.969Z,6.446533203
2023-03-17T03:08:14.436Z,6.446533203
2023-03-17T03:09:15.659Z,6.456604004
2023-03-17T03:10:16.159Z,6.506958008
2023-03-17T03:11:16.747Z,6.476745605
2023-03-17T03:12:17.094Z,6.496887207
2023-03-17T03:13:17.558Z,6.456604004
2023-03-17T03:14:17.960Z,6.446533203
2023-03-17T03:15:18.509Z,6.446533203
2023-03-17T03:16:19.157Z,6.456604004
2023-03-17T03:17:19.435Z,6.416320801
2023-03-17T03:18:19.852Z,6.396179199
2023-03-17T03:19:21.195Z,6.396179199
2023-03-17T03:20:21.653Z,6.386108398
2023-03-17T03:21:22.262Z,6.376037598
2023-03-17T03:22:22.679Z,6.396179199
2023-03-17T03:23:23.098Z,6.386108398
2023-03-17T03:24:23.570Z,6.386108398
2023-03-17T03:25:24.028Z,6.355895996
2023-03-17T03:26:24.514Z,6.345825195
2023-03-17T03:27:24.919Z,6.386108398
2023-03-17T03:28:25.327Z,6.355895996
2023-03-17T03:29:26.378Z,6.376037598
2023-03-17T03:30:26.786Z,6.416320801
2023-03-17T03:31:27.394Z,6.376037598
2023-03-17T03:32:27.726Z,6.376037598
2023-03-17T03:33:28.161Z,6.345825195
2023-03-17T03:34:28.635Z,6.345825195
2023-03-17T03:35:29.064Z,6.355895996
2023-03-17T03:36:29.649Z,6.345825195
2023-03-17T03:37:29.950Z,6.345825195
2023-03-17T03:38:30.381Z,6.386108398
2023-03-17T03:39:31.518Z,6.386108398
2023-03-17T03:40:32.396Z,6.355895996
2023-03-17T03:41:32.696Z,6.355895996
2023-03-17T03:42:33.022Z,6.355895996
2023-03-17T03:43:33.877Z,6.325683594
2023-03-17T03:45:04.577Z,6.315612793
2023-03-17T03:46:05.060Z,6.345825195
2023-03-17T03:47:05.459Z,6.345825195
2023-03-17T03:48:05.857Z,6.315612793
2023-03-17T03:49:07.201Z,6.315612793
2023-03-17T03:50:07.597Z,6.265258789
2023-03-17T03:51:08.255Z,6.235046387
2023-03-17T03:52:08.841Z,6.204833984
2023-03-17T03:53:09.191Z,6.204833984
2023-03-17T03:54:09.615Z,6.204833984
2023-03-17T03:55:10.874Z,6.194763184
2023-03-17T03:56:11.371Z,6.204833984
2023-03-17T03:57:11.846Z,6.194763184
2023-03-17T03:58:12.313Z,6.214904785
2023-03-17T03:59:13.678Z,6.295471191
2023-03-17T04:00:14.068Z,6.295471191
2023-03-17T04:01:14.462Z,6.295471191
2023-03-17T04:02:14.944Z,6.345825195
2023-03-17T04:03:15.334Z,6.355895996
2023-03-17T04:04:15.786Z,6.325683594
2023-03-17T04:05:16.225Z,6.235046387
2023-03-17T04:06:16.687Z,6.235046387
2023-03-17T04:07:17.244Z,6.27532959
2023-03-17T04:08:17.612Z,6.295471191
2023-03-17T04:09:18.067Z,6.265258789
2023-03-17T04:10:19.401Z,6.27532959
2023-03-17T04:11:19.850Z,6.27532959
2023-03-17T04:12:20.254Z,6.325683594
2023-03-17T04:13:20.682Z,6.295471191
2023-03-17T04:14:21.109Z,6.315612793
2023-03-17T04:15:21.506Z,6.315612793
2023-03-17T04:16:21.950Z,6.345825195
2023-03-17T04:17:22.389Z,6.295471191
2023-03-17T04:18:22.870Z,6.27532959
2023-03-17T04:19:24.219Z,6.315612793
2023-03-17T04:20:24.672Z,6.325683594
2023-03-17T04:21:25.152Z,6.315612793
2023-03-17T04:22:25.569Z,6.27532959
2023-03-17T04:23:26.043Z,6.27532959
2023-03-17T04:24:26.498Z,6.315612793
2023-03-17T04:25:26.952Z,6.295471191
2023-03-17T04:26:27.849Z,6.325683594
2023-03-17T04:27:28.363Z,6.325683594
2023-03-17T04:28:28.677Z,6.27532959
2023-03-17T04:29:29.666Z,6.245117188
2023-03-17T04:30:30.398Z,6.164550781
2023-03-17T04:31:30.651Z,6.134338379
2023-03-17T04:32:31.098Z,6.083984375
2023-03-17T04:33:31.453Z,6.104125977
2023-03-17T04:34:32.768Z,6.104125977
2023-03-17T04:36:03.733Z,6.114196777
2023-03-17T04:37:04.170Z,6.134338379
2023-03-17T04:38:04.616Z,6.164550781
2023-03-17T04:39:05.091Z,6.14440918
2023-03-17T04:40:06.511Z,6.164550781
2023-03-17T04:41:06.749Z,6.114196777
2023-03-17T04:42:07.183Z,6.083984375
2023-03-17T04:43:07.640Z,6.083984375
2023-03-17T04:44:08.444Z,6.104125977
2023-03-17T04:45:08.947Z,6.134338379
2023-03-17T04:46:09.403Z,6.14440918
2023-03-17T04:47:09.802Z,6.134338379
2023-03-17T04:48:10.377Z,6.114196777
2023-03-17T04:49:10.839Z,6.104125977
2023-03-17T04:50:11.896Z,6.114196777
2023-03-17T04:51:12.375Z,6.114196777
2023-03-17T04:52:12.792Z,6.104125977
2023-03-17T04:53:13.184Z,6.114196777
2023-03-17T04:54:13.662Z,6.14440918
2023-03-17T04:55:14.120Z,6.14440918
2023-03-17T04:56:14.582Z,6.104125977
2023-03-17T04:57:15.656Z,6.114196777
2023-03-17T04:58:29.792Z,6.14440918
2023-03-17T04:59:16.545Z,6.194763184
2023-03-17T05:00:17.957Z,6.174621582
2023-03-17T05:01:18.450Z,6.174621582
2023-03-17T05:02:18.943Z,6.164550781
2023-03-17T05:03:26.759Z,6.14440918
2023-03-17T05:04:31.278Z,6.114196777
2023-03-17T05:05:20.310Z,6.134338379
2023-03-17T05:06:20.701Z,6.104125977
2023-03-17T05:07:21.140Z,6.114196777
2023-03-17T05:08:21.550Z,6.14440918
2023-03-17T05:09:21.997Z,6.134338379
2023-03-17T05:10:26.603Z,6.104125977
2023-03-17T05:11:27.613Z,6.114196777
2023-03-17T05:12:28.619Z,6.134338379
2023-03-17T05:13:28.970Z,6.14440918
2023-03-17T05:14:29.400Z,6.164550781
2023-03-17T05:15:29.956Z,6.114196777
2023-03-17T05:16:30.498Z,6.053771973
2023-03-17T05:17:30.872Z,6.01348877
2023-03-17T05:18:31.379Z,5.932922363
2023-03-17T05:19:31.788Z,5.832214355
2023-03-17T05:20:32.884Z,5.731506348
2023-03-17T05:22:03.204Z,5.661010742
2023-03-17T05:23:03.642Z,5.671081543
2023-03-17T05:24:04.901Z,5.63079834
2023-03-17T05:25:05.352Z,5.661010742
2023-03-17T05:26:05.884Z,5.671081543
2023-03-17T05:27:06.206Z,5.701293945
2023-03-17T05:28:06.677Z,5.751647949
2023-03-17T05:29:07.163Z,5.701293945
2023-03-17T05:30:08.381Z,5.741577148
2023-03-17T05:31:10.943Z,5.751647949
2023-03-17T05:32:09.385Z,5.802001953
2023-03-17T05:33:09.847Z,5.812072754
2023-03-17T05:34:10.321Z,5.842285156
2023-03-17T05:35:10.853Z,5.832214355
2023-03-17T05:36:11.371Z,5.872497559
2023-03-17T05:37:11.819Z,5.902709961
2023-03-17T05:38:12.242Z,5.882568359
2023-03-17T05:39:14.509Z,5.852355957
2023-03-17T05:40:14.167Z,5.872497559
2023-03-17T05:41:14.715Z,5.872497559
2023-03-17T05:42:15.056Z,5.882568359
2023-03-17T05:43:15.531Z,5.902709961
2023-03-17T05:44:15.960Z,5.932922363
2023-03-17T05:45:16.388Z,5.922851563
2023-03-17T05:46:19.806Z,5.922851563
2023-03-17T05:47:17.364Z,5.922851563
2023-03-17T05:48:17.760Z,5.922851563
2023-03-17T05:49:18.169Z,5.902709961
2023-03-17T05:50:19.158Z,5.902709961
2023-03-17T05:51:19.721Z,5.872497559
2023-03-17T05:52:20.098Z,5.902709961
2023-03-17T05:53:20.555Z,5.922851563
2023-03-17T05:54:21.005Z,5.932922363
2023-03-17T05:55:21.439Z,5.922851563
2023-03-17T05:56:22.082Z,5.902709961
2023-03-17T05:57:22.435Z,5.902709961
2023-03-17T05:58:22.897Z,5.902709961
2023-03-17T05:59:23.314Z,5.953063965
2023-03-17T06:00:24.772Z,5.953063965
2023-03-17T06:01:25.224Z,5.953063965
2023-03-17T06:02:25.737Z,5.983276367
2023-03-17T06:03:26.175Z,6.02355957
2023-03-17T06:04:26.592Z,6.083984375
2023-03-17T06:05:26.977Z,6.114196777
2023-03-17T06:06:28.174Z,6.104125977
2023-03-17T06:07:38.189Z,6.134338379
2023-03-17T06:08:29.198Z,6.114196777
2023-03-17T06:09:30.197Z,6.063842773
2023-03-17T06:10:30.906Z,6.053771973
2023-03-17T06:11:31.144Z,6.033630371
2023-03-17T06:12:31.552Z,6.033630371
2023-03-17T06:14:02.781Z,6.053771973
2023-03-17T06:15:03.276Z,6.063842773
2023-03-17T06:16:03.825Z,6.063842773
2023-03-17T06:17:04.135Z,6.063842773
2023-03-17T06:18:04.554Z,6.134338379
2023-03-17T06:19:05.003Z,6.164550781
2023-03-17T06:20:05.468Z,6.164550781
2023-03-17T06:21:05.902Z,6.194763184
2023-03-17T06:22:06.377Z,6.204833984
2023-03-17T06:23:06.826Z,6.194763184
2023-03-17T06:24:07.308Z,6.235046387
2023-03-17T06:25:07.782Z,6.214904785
2023-03-17T06:26:09.191Z,6.235046387
2023-03-17T06:27:09.682Z,6.235046387
2023-03-17T06:28:10.218Z,6.214904785
2023-03-17T06:29:10.626Z,6.27532959
2023-03-17T06:30:11.754Z,6.325683594
2023-03-17T06:31:12.270Z,6.345825195
2023-03-17T06:32:20.244Z,6.325683594
2023-03-17T06:33:13.958Z,6.295471191
2023-03-17T06:34:14.325Z,6.315612793
2023-03-17T06:35:14.796Z,6.315612793
2023-03-17T06:36:15.214Z,6.345825195
2023-03-17T06:37:15.654Z,6.376037598
2023-03-17T06:38:16.126Z,6.376037598
2023-03-17T06:39:16.648Z,6.416320801
2023-03-17T06:40:17.688Z,6.426391602
2023-03-17T06:41:18.079Z,6.426391602
2023-03-17T06:42:18.490Z,6.456604004
2023-03-17T06:43:18.927Z,6.456604004
2023-03-17T06:44:19.349Z,6.496887207
2023-03-17T06:45:19.900Z,6.506958008
2023-03-17T06:46:20.435Z,6.567382813
2023-03-17T06:47:20.804Z,6.567382813
2023-03-17T06:48:21.236Z,6.53717041
2023-03-17T06:49:21.658Z,6.53717041
2023-03-17T06:50:22.735Z,6.506958008
2023-03-17T06:51:23.124Z,6.476745605
2023-03-17T06:52:23.547Z,6.456604004
2023-03-17T06:53:23.968Z,6.496887207
2023-03-17T06:54:24.408Z,6.53717041
2023-03-17T06:55:24.980Z,6.567382813
2023-03-17T06:56:30.199Z,6.577453613
2023-03-17T06:57:25.805Z,6.597595215
2023-03-17T06:58:26.878Z,6.607666016
2023-03-17T06:59:27.492Z,6.637878418
2023-03-17T07:00:28.674Z,6.678161621
2023-03-17T07:01:29.138Z,6.688232422
2023-03-17T07:02:29.572Z,6.708374023
2023-03-17T07:03:30.063Z,6.708374023
2023-03-17T07:04:30.657Z,6.758728027
2023-03-17T07:05:31.653Z,6.829223633
2023-03-17T07:07:02.794Z,6.889648438
2023-03-17T07:08:03.194Z,6.909790039
2023-03-17T07:09:03.774Z,6.940002441
2023-03-17T07:10:04.211Z,7.000427246
2023-03-17T07:11:05.453Z,7.040710449
2023-03-17T07:12:06.004Z,7.05078125
2023-03-17T07:13:06.421Z,7.070922852
2023-03-17T07:14:06.879Z,7.121276855
2023-03-17T07:15:07.291Z,7.161560059
2023-03-17T07:16:07.753Z,7.18170166
2023-03-17T07:17:08.206Z,7.151489258
2023-03-17T07:18:08.731Z,7.191772461
2023-03-17T07:19:09.164Z,7.211914063
2023-03-17T07:20:09.617Z,7.242126465
2023-03-17T07:21:10.913Z,7.242126465
2023-03-17T07:22:11.696Z,7.30255127
2023-03-17T07:23:12.228Z,7.332763672
2023-03-17T07:24:12.964Z,7.362976074
2023-03-17T07:25:13.791Z,7.393188477
2023-03-17T07:26:14.140Z,7.373046875
2023-03-17T07:27:14.659Z,7.362976074
2023-03-17T07:28:15.886Z,7.362976074
2023-03-17T07:29:16.326Z,7.332763672
2023-03-17T07:30:16.757Z,7.332763672
2023-03-17T07:31:17.925Z,7.322692871
2023-03-17T07:32:18.492Z,7.322692871
2023-03-17T07:33:19.103Z,7.30255127
2023-03-17T07:34:19.950Z,7.292480469
2023-03-17T07:35:21.486Z,7.292480469
2023-03-17T07:36:21.806Z,7.322692871
2023-03-17T07:37:22.224Z,7.373046875
2023-03-17T07:38:22.667Z,7.413330078
2023-03-17T07:39:23.133Z,7.453613281
2023-03-17T07:40:23.592Z,7.473754883
2023-03-17T07:41:24.912Z,7.483825684
2023-03-17T07:42:25.388Z,7.514038086
2023-03-17T07:43:25.934Z,7.544250488
2023-03-17T07:44:26.586Z,7.554321289
2023-03-17T07:45:27.307Z,7.554321289
2023-03-17T07:46:27.831Z,7.574462891
2023-03-17T07:47:28.092Z,7.574462891
2023-03-17T07:48:28.495Z,7.584533691
2023-03-17T07:49:40.885Z,7.584533691
2023-03-17T07:50:29.466Z,7.584533691
2023-03-17T07:51:29.763Z,7.604675293
2023-03-17T07:53:01.180Z,7.604675293
2023-03-17T07:54:01.626Z,7.604675293
2023-03-17T07:55:02.027Z,7.604675293
2023-03-17T07:56:03.848Z,7.604675293
2023-03-17T07:57:04.148Z,7.624816895
2023-03-17T07:58:04.724Z,7.655029297
2023-03-17T07:59:05.031Z,7.685241699
2023-03-17T08:00:05.413Z,7.6953125
2023-03-17T08:01:06.869Z,7.735595703
2023-03-17T08:02:07.203Z,7.755737305
2023-03-17T08:03:10.771Z,7.785949707
2023-03-17T08:04:08.040Z,7.836303711
2023-03-17T08:05:09.194Z,7.876586914
2023-03-17T08:06:09.623Z,7.906799316
2023-03-17T08:07:10.060Z,7.94708252
2023-03-17T08:08:10.476Z,8.027648926
2023-03-17T08:09:10.865Z,8.067932129
2023-03-17T08:10:11.991Z,8.08807373
2023-03-17T08:11:13.271Z,8.128356934
2023-03-17T08:12:13.628Z,8.178710938
2023-03-17T08:13:14.038Z,8.178710938
2023-03-17T08:14:14.510Z,8.20892334
2023-03-17T08:15:14.940Z,8.239135742
2023-03-17T08:16:15.495Z,8.249206543
2023-03-17T08:17:15.816Z,8.289489746
2023-03-17T08:18:17.252Z,8.359985352
2023-03-17T08:19:17.712Z,8.390197754
2023-03-17T08:20:18.864Z,8.400268555
2023-03-17T08:21:20.209Z,8.400268555
2023-03-17T08:22:20.633Z,8.450622559
2023-03-17T08:23:21.076Z,8.430480957
2023-03-17T08:24:21.592Z,8.430480957
2023-03-17T08:25:22.080Z,8.450622559
2023-03-17T08:26:23.281Z,8.450622559
2023-03-17T08:27:23.702Z,8.460693359
2023-03-17T08:28:24.101Z,8.500976563
2023-03-17T08:29:24.619Z,8.541259766
2023-03-17T08:30:25.292Z,8.571472168
2023-03-17T08:31:26.823Z,8.60168457
2023-03-17T08:32:27.206Z,8.652038574
2023-03-17T08:33:28.397Z,8.682250977
2023-03-17T08:34:28.842Z,8.73260498
2023-03-17T08:35:29.998Z,8.762817383
2023-03-17T08:36:29.839Z,8.803100586
2023-03-17T08:38:00.630Z,8.85345459
2023-03-17T08:39:01.230Z,8.883666992
2023-03-17T08:40:01.706Z,8.893737793
2023-03-17T08:41:02.174Z,8.944091797
2023-03-17T08:42:03.373Z,8.964233398
2023-03-17T08:43:03.905Z,8.984375
2023-03-17T08:44:04.524Z,9.014587402
2023-03-17T08:45:05.040Z,9.034729004
2023-03-17T08:46:05.523Z,9.064941406
2023-03-17T08:47:05.873Z,9.11529541
2023-03-17T08:48:06.311Z,9.165649414
2023-03-17T08:49:06.752Z,9.216003418
2023-03-17T08:50:07.236Z,9.23614502
2023-03-17T08:51:07.689Z,9.296569824
2023-03-17T08:52:08.888Z,9.306640625
2023-03-17T08:53:09.466Z,9.336853027
2023-03-17T08:54:10.010Z,9.36706543
2023-03-17T08:55:10.395Z,9.397277832
2023-03-17T08:56:11.668Z,9.417419434
2023-03-17T08:57:14.057Z,9.447631836
2023-03-17T08:58:12.599Z,9.477844238
2023-03-17T08:59:13.167Z,9.487915039
2023-03-17T09:00:13.546Z,9.528198242
2023-03-17T09:01:14.009Z,9.558410645
2023-03-17T09:02:14.974Z,9.598693848
2023-03-17T09:03:15.378Z,9.62890625
2023-03-17T09:04:15.844Z,9.669189453
2023-03-17T09:05:16.317Z,9.699401855
2023-03-17T09:06:16.739Z,9.729614258
2023-03-17T09:07:17.292Z,9.749755859
2023-03-17T09:08:17.753Z,9.779968262
2023-03-17T09:09:18.187Z,9.830322266
2023-03-17T09:10:19.424Z,9.850463867
2023-03-17T09:11:19.861Z,9.860534668
2023-03-17T09:12:20.973Z,9.910888672
2023-03-17T09:13:21.392Z,9.920959473
2023-03-17T09:14:21.836Z,9.951171875
2023-03-17T09:15:22.350Z,9.981384277
2023-03-17T09:16:22.819Z,9.991455078
2023-03-17T09:17:23.259Z,10.04180908
2023-03-17T09:18:23.677Z,10.06195068
2023-03-17T09:19:24.095Z,10.10223389
2023-03-17T09:20:25.273Z,10.10223389
2023-03-17T09:21:25.650Z,10.13244629
2023-03-17T09:22:26.905Z,10.14251709
2023-03-17T09:23:27.428Z,10.17272949
2023-03-17T09:24:27.719Z,10.20294189
2023-03-17T09:25:28.186Z,10.2230835
2023-03-17T09:26:28.660Z,10.2432251
2023-03-17T09:27:29.081Z,10.2532959
2023-03-17T09:29:03.074Z,10.2633667
2023-03-17T09:30:01.345Z,10.2532959
2023-03-17T09:31:01.774Z,10.2835083
2023-03-17T09:32:02.888Z,10.2935791
2023-03-17T09:33:03.392Z,10.2935791
2023-03-17T09:34:03.696Z,10.2935791
2023-03-17T09:35:04.872Z,10.2935791
2023-03-17T09:36:05.297Z,10.2935791
2023-03-17T09:37:05.713Z,10.34393311
2023-03-17T09:38:06.140Z,10.35400391
2023-03-17T09:39:06.563Z,10.36407471
2023-03-17T09:40:06.974Z,10.39428711
2023-03-17T09:41:07.364Z,10.43457031
2023-03-17T09:42:08.449Z,10.43457031
2023-03-17T09:43:08.884Z,10.44464111
2023-03-17T09:44:09.307Z,10.49499512
2023-03-17T09:45:09.739Z,10.51513672
2023-03-17T09:46:10.270Z,10.53527832
2023-03-17T09:47:10.639Z,10.57556152
2023-03-17T09:48:11.936Z,10.59570313
2023-03-17T09:49:12.409Z,10.62591553
2023-03-17T09:50:12.888Z,10.67626953
2023-03-17T09:51:13.341Z,10.68634033
2023-03-17T09:52:14.457Z,10.69641113
2023-03-17T09:53:15.004Z,10.68634033
2023-03-17T09:54:15.426Z,10.71655273
2023-03-17T09:55:15.837Z,10.72662354
2023-03-17T09:56:16.277Z,10.74676514
2023-03-17T09:57:17.413Z,10.75683594
2023-03-17T09:58:17.864Z,10.74676514
2023-03-17T09:59:18.311Z,10.75683594
2023-03-17T10:00:18.832Z,10.77697754
2023-03-17T10:01:20.011Z,10.80718994
2023-03-17T10:02:20.338Z,10.85754395
2023-03-17T10:03:20.853Z,10.86761475
2023-03-17T10:04:21.177Z,10.86761475
2023-03-17T10:05:21.781Z,10.85754395
2023-03-17T10:06:22.171Z,10.85754395
2023-03-17T10:07:22.592Z,10.86761475
2023-03-17T10:08:31.390Z,10.87768555
2023-03-17T10:09:26.640Z,10.89782715
2023-03-17T10:10:23.997Z,10.92803955
2023-03-17T10:11:24.447Z,10.93811035
2023-03-17T10:12:25.440Z,10.94818115
2023-03-17T10:13:25.882Z,10.98846436
2023-03-17T10:14:26.302Z,11.00860596
2023-03-17T10:15:26.737Z,11.02874756
2023-03-17T10:16:27.310Z,11.08917236
2023-03-17T10:17:27.706Z,11.11938477
2023-03-17T10:18:28.267Z,11.12945557
2023-03-17T10:19:29.001Z,11.16973877
2023-03-17T10:20:59.659Z,11.21002197
2023-03-17T10:22:00.682Z,11.21002197
2023-03-17T10:23:01.121Z,11.24023438
2023-03-17T10:24:01.589Z,11.24023438
2023-03-17T10:25:03.721Z,11.26037598
2023-03-17T10:26:02.701Z,11.26037598
2023-03-17T10:27:03.192Z,11.27044678
2023-03-17T10:28:03.664Z,11.27044678
2023-03-17T10:29:04.735Z,11.27044678
2023-03-17T10:30:05.181Z,11.27044678
2023-03-17T10:31:05.618Z,11.27044678
2023-03-17T10:32:06.764Z,11.26037598
2023-03-17T10:33:07.387Z,11.26037598
2023-03-17T10:34:07.611Z,11.23016357
2023-03-17T10:35:08.704Z,11.21002197
2023-03-17T10:36:09.344Z,11.19995117
2023-03-17T10:37:09.673Z,11.18988037
2023-03-17T10:38:14.332Z,11.18988037
2023-03-17T10:39:10.609Z,11.19995117
2023-03-17T10:40:11.060Z,11.18988037
2023-03-17T10:41:11.488Z,11.18988037
2023-03-17T10:42:12.681Z,11.18988037
2023-03-17T10:43:13.061Z,11.19995117
2023-03-17T10:44:13.536Z,11.16973877
2023-03-17T10:45:13.990Z,11.19995117
2023-03-17T10:46:14.425Z,11.19995117
2023-03-17T10:47:14.876Z,11.24023438
2023-03-17T10:48:15.258Z,11.24023438
2023-03-17T10:49:15.824Z,11.24023438
2023-03-17T10:50:16.317Z,11.27044678
2023-03-17T10:51:16.722Z,11.30065918
2023-03-17T10:52:17.712Z,11.30065918
2023-03-17T10:53:18.150Z,11.31072998
2023-03-17T10:54:18.554Z,11.33087158
2023-03-17T10:55:19.037Z,11.33087158
2023-03-17T10:56:19.514Z,11.35101318
2023-03-17T10:57:20.690Z,11.35101318
2023-03-17T10:58:21.128Z,11.36108398
2023-03-17T10:59:21.605Z,11.39129639
2023-03-17T11:00:21.985Z,11.41143799
2023-03-17T11:01:22.467Z,11.42150879
2023-03-17T11:02:23.725Z,11.45172119